createdAt,value
2023-02-06T00:00:52.089Z,6.77
2023-02-06T00:03:20.385Z,8.37
2023-02-06T00:05:57.211Z,8.53
2023-02-06T00:08:25.458Z,6.40
2023-02-06T00:10:53.251Z,6.23
2023-02-06T00:13:21.443Z,7.23
2023-02-06T00:15:49.239Z,7.60
2023-02-06T00:18:16.948Z,7.70
2023-02-06T00:20:44.704Z,7.47
2023-02-06T00:23:13.728Z,6.70
2023-02-06T00:25:41.468Z,7.23
2023-02-06T00:28:09.187Z,7.07
2023-02-06T00:30:36.917Z,7.90
2023-02-06T00:33:04.831Z,7.13
2023-02-06T00:35:32.521Z,6.37
2023-02-06T00:38:02.375Z,5.93
2023-02-06T00:40:31.415Z,5.80
2023-02-06T00:42:59.129Z,8.03
2023-02-06T00:45:26.825Z,5.90
2023-02-06T00:47:54.664Z,6.07
2023-02-06T00:50:22.386Z,6.33
2023-02-06T00:52:50.074Z,5.93
2023-02-06T00:55:17.894Z,7.23
2023-02-06T00:57:46.970Z,6.40
2023-02-06T01:00:15.634Z,6.07
2023-02-06T01:02:43.346Z,6.57
2023-02-06T01:05:11.086Z,7.07
2023-02-06T01:07:40.327Z,6.87
2023-02-06T01:10:09.830Z,6.47
2023-02-06T01:12:38.125Z,5.43
2023-02-06T01:15:09.132Z,7.03
2023-02-06T01:17:36.766Z,7.60
2023-02-06T01:20:05.839Z,6.70
2023-02-06T01:22:35.296Z,5.87
2023-02-06T01:25:03.315Z,7.77
2023-02-06T01:27:31.062Z,6.20
2023-02-06T01:29:58.811Z,6.87
2023-02-06T01:32:27.917Z,7.23
2023-02-06T01:34:55.582Z,7.40
2023-02-06T01:37:23.236Z,6.93
2023-02-06T01:39:51.258Z,7.10
2023-02-06T01:42:18.900Z,6.23
2023-02-06T01:44:46.641Z,6.40
2023-02-06T01:47:14.364Z,6.10
2023-02-06T01:49:45.946Z,8.63
2023-02-06T01:52:18.190Z,7.40
2023-02-06T01:54:48.214Z,5.93
2023-02-06T01:57:16.253Z,9.43
2023-02-06T01:59:46.687Z,6.23
2023-02-06T02:02:14.864Z,5.10
2023-02-06T02:04:44.280Z,8.27
2023-02-06T02:07:16.598Z,7.03
2023-02-06T02:09:44.378Z,6.63
2023-02-06T02:12:13.010Z,5.97
2023-02-06T02:14:43.323Z,6.00
2023-02-06T02:17:22.648Z,7.03
2023-02-06T02:20:23.523Z,7.03
2023-02-06T02:23:07.087Z,6.07
2023-02-06T02:26:00.960Z,6.40
2023-02-06T02:29:03.892Z,5.83
2023-02-06T02:32:01.008Z,4.97
2023-02-06T02:34:57.270Z,5.17
2023-02-06T02:37:31.045Z,6.27
2023-02-06T02:40:06.153Z,5.87
2023-02-06T02:42:38.717Z,5.07
2023-02-06T02:45:10.762Z,6.07
2023-02-06T02:47:43.892Z,7.67
2023-02-06T02:50:13.352Z,6.73
2023-02-06T02:52:41.062Z,5.57
2023-02-06T02:55:21.136Z,6.97
2023-02-06T02:57:50.788Z,5.97
2023-02-06T03:00:19.370Z,4.83
2023-02-06T03:02:47.487Z,8.00
2023-02-06T03:05:21.264Z,6.30
2023-02-06T03:07:55.958Z,7.87
2023-02-06T03:10:29.022Z,8.33
2023-02-06T03:13:03.795Z,7.33
2023-02-06T03:15:36.644Z,6.97
2023-02-06T03:18:09.147Z,6.23
2023-02-06T03:20:39.916Z,6.90
2023-02-06T03:23:08.133Z,7.47
2023-02-06T03:25:38.416Z,7.13
2023-02-06T03:28:06.663Z,7.47
2023-02-06T03:30:35.419Z,7.60
2023-02-06T03:33:06.146Z,8.00
2023-02-06T03:35:36.540Z,6.23
2023-02-06T03:38:06.109Z,7.13
2023-02-06T03:40:34.067Z,8.70
2023-02-06T03:43:03.576Z,8.00
2023-02-06T03:45:32.555Z,5.13
2023-02-06T03:48:02.571Z,7.43
2023-02-06T03:50:30.341Z,7.33
2023-02-06T03:52:59.795Z,6.40
2023-02-06T03:55:29.047Z,7.23
2023-02-06T03:57:59.904Z,7.13
2023-02-06T04:00:28.067Z,8.43
2023-02-06T04:02:56.820Z,6.37
2023-02-06T04:05:24.907Z,6.77
2023-02-06T04:07:53.894Z,8.87
2023-02-06T04:10:21.537Z,7.30
2023-02-06T04:12:50.529Z,8.33
2023-02-06T04:15:18.364Z,6.77
2023-02-06T04:17:57.913Z,6.23
2023-02-06T04:20:27.529Z,7.37
2023-02-06T04:22:55.485Z,7.53
2023-02-06T04:25:23.185Z,6.30
2023-02-06T04:27:52.450Z,7.37
2023-02-06T04:30:20.500Z,6.10
2023-02-06T04:32:48.170Z,6.23
2023-02-06T04:35:15.855Z,6.80
2023-02-06T04:37:43.612Z,6.97
2023-02-06T04:40:12.796Z,6.07
2023-02-06T04:42:40.460Z,6.17
2023-02-06T04:45:10.403Z,6.40
2023-02-06T04:47:38.110Z,6.47
2023-02-06T04:50:06.885Z,6.60
2023-02-06T04:52:34.652Z,6.17
2023-02-06T04:55:02.392Z,6.03
2023-02-06T04:57:30.041Z,8.37
2023-02-06T04:59:57.774Z,5.93
2023-02-06T05:02:26.887Z,6.53
2023-02-06T05:04:54.529Z,7.57
2023-02-06T05:07:22.188Z,6.80
2023-02-06T05:09:49.860Z,5.87
2023-02-06T05:12:17.589Z,6.50
2023-02-06T05:14:45.222Z,7.73
2023-02-06T05:17:13.096Z,6.33
2023-02-06T05:19:42.086Z,6.90
2023-02-06T05:22:10.042Z,5.97
2023-02-06T05:24:37.798Z,7.63
2023-02-06T05:27:05.589Z,6.30
2023-02-06T05:29:33.261Z,6.17
2023-02-06T05:32:00.972Z,5.80
2023-02-06T05:34:28.644Z,5.73
2023-02-06T05:36:57.719Z,5.80
2023-02-06T05:39:25.488Z,5.13
2023-02-06T05:41:53.159Z,7.23
2023-02-06T05:44:20.836Z,6.50
2023-02-06T05:46:49.345Z,6.50
2023-02-06T05:49:17.309Z,5.83
2023-02-06T05:51:45.042Z,6.33
2023-02-06T05:54:16.993Z,6.80
2023-02-06T05:56:44.779Z,7.97
2023-02-06T05:59:12.647Z,7.93
2023-02-06T06:01:40.380Z,6.00
2023-02-06T06:04:08.204Z,6.53
2023-02-06T06:06:35.970Z,6.63
2023-02-06T06:09:03.678Z,6.43
2023-02-06T06:11:33.415Z,7.30
2023-02-06T06:14:01.614Z,8.77
2023-02-06T06:16:29.410Z,7.47
2023-02-06T06:18:57.140Z,7.10
2023-02-06T06:21:25.015Z,6.50
2023-02-06T06:23:52.767Z,6.87
2023-02-06T06:26:20.637Z,6.47
2023-02-06T06:28:49.949Z,6.83
2023-02-06T06:31:17.673Z,9.90
2023-02-06T06:33:45.665Z,7.37
2023-02-06T06:36:14.543Z,6.47
2023-02-06T06:38:42.814Z,7.33
2023-02-06T06:41:10.510Z,8.43
2023-02-06T06:43:38.203Z,7.63
2023-02-06T06:46:07.412Z,7.17
2023-02-06T06:48:36.506Z,8.13
2023-02-06T06:51:04.148Z,8.13
2023-02-06T06:53:31.858Z,7.37
2023-02-06T06:56:03.722Z,8.30
2023-02-06T06:58:31.546Z,7.53
2023-02-06T07:00:59.338Z,7.93
2023-02-06T07:03:28.586Z,8.43
2023-02-06T07:05:56.351Z,7.73
2023-02-06T07:08:24.059Z,7.80
2023-02-06T07:10:51.789Z,8.17
2023-02-06T07:13:19.540Z,8.43
2023-02-06T07:15:47.207Z,8.27
2023-02-06T07:18:14.897Z,8.57
2023-02-06T07:20:43.903Z,7.40
2023-02-06T07:23:11.579Z,8.83
2023-02-06T07:25:39.260Z,9.37
2023-02-06T07:28:06.925Z,8.27
2023-02-06T07:30:34.660Z,8.50
2023-02-06T07:33:02.335Z,7.73
2023-02-06T07:35:30.046Z,11.27
2023-02-06T07:37:59.126Z,8.83
2023-02-06T07:40:33.755Z,9.50
2023-02-06T07:43:10.882Z,9.03
2023-02-06T07:45:38.872Z,8.90
2023-02-06T07:48:07.869Z,9.67
2023-02-06T07:50:35.663Z,9.27
2023-02-06T07:53:04.906Z,8.93
2023-02-06T07:55:32.587Z,10.73
2023-02-06T07:58:00.228Z,9.70
2023-02-06T08:00:27.874Z,9.10
2023-02-06T08:02:55.584Z,9.20
2023-02-06T08:05:23.304Z,7.90
2023-02-06T08:07:51.599Z,8.57
2023-02-06T08:10:20.924Z,8.93
2023-02-06T08:12:48.575Z,9.67
2023-02-06T08:15:17.120Z,7.70
2023-02-06T08:17:44.825Z,6.40
2023-02-06T08:20:13.442Z,7.47
2023-02-06T08:22:41.169Z,6.63
2023-02-06T08:25:09.318Z,6.97
2023-02-06T08:27:38.293Z,7.47
2023-02-06T08:30:06.940Z,7.47
2023-02-06T08:32:35.513Z,7.23
2023-02-06T08:35:03.184Z,7.13
2023-02-06T08:37:32.430Z,6.57
2023-02-06T08:40:00.113Z,7.53
2023-02-06T08:42:27.777Z,6.50
2023-02-06T08:44:56.862Z,6.83
2023-02-06T08:47:24.495Z,6.30
2023-02-06T08:49:52.255Z,6.73
2023-02-06T08:52:20.010Z,7.00
2023-02-06T08:54:47.705Z,6.27
2023-02-06T08:57:15.389Z,6.70
2023-02-06T08:59:43.086Z,7.17
2023-02-06T09:02:12.879Z,6.20
2023-02-06T09:04:42.656Z,6.93
2023-02-06T09:07:10.414Z,6.43
2023-02-06T09:09:38.274Z,6.53
2023-02-06T09:12:06.293Z,7.33
2023-02-06T09:14:35.375Z,8.17
2023-02-06T09:17:03.180Z,7.47
2023-02-06T09:19:32.205Z,7.77
2023-02-06T09:22:00.271Z,18.10
2023-02-06T09:24:30.199Z,15.20
2023-02-06T09:27:00.320Z,8.80
2023-02-06T09:29:31.514Z,7.13
2023-02-06T09:31:59.520Z,7.47
2023-02-06T09:34:28.261Z,9.63
2023-02-06T09:36:57.772Z,10.83
2023-02-06T09:39:25.606Z,7.60
2023-02-06T09:41:55.151Z,7.30
2023-02-06T09:44:26.521Z,7.03
2023-02-06T09:46:57.324Z,6.87
2023-02-06T09:49:29.725Z,6.93
2023-02-06T09:52:10.756Z,8.77
2023-02-06T09:54:46.199Z,7.73
2023-02-06T09:57:17.323Z,10.90
2023-02-06T09:59:48.943Z,7.33
2023-02-06T10:02:27.981Z,11.40
2023-02-06T10:04:58.146Z,10.17
2023-02-06T10:07:39.490Z,11.20
2023-02-06T10:10:13.859Z,5.77
2023-02-06T10:12:43.850Z,7.37
2023-02-06T10:15:15.204Z,7.43
2023-02-06T10:17:47.734Z,7.43
2023-02-06T10:20:19.726Z,8.93
2023-02-06T10:22:58.600Z,7.30
2023-02-06T10:25:30.360Z,9.20
2023-02-06T10:28:00.231Z,8.23
2023-02-06T10:30:38.716Z,10.60
2023-02-06T10:33:20.301Z,7.57
2023-02-06T10:36:00.406Z,9.40
2023-02-06T10:38:38.863Z,7.20
2023-02-06T10:41:12.218Z,11.53
2023-02-06T10:43:45.746Z,19.47
2023-02-06T10:46:29.113Z,9.30
2023-02-06T10:49:02.138Z,9.40
2023-02-06T10:51:33.028Z,7.57
2023-02-06T10:54:04.367Z,9.60
2023-02-06T10:56:36.833Z,8.27
2023-02-06T10:59:07.916Z,11.13
2023-02-06T11:01:38.337Z,8.50
2023-02-06T11:04:10.964Z,9.33
2023-02-06T11:06:40.157Z,8.90
2023-02-06T11:09:09.949Z,8.27
2023-02-06T11:11:40.552Z,9.80
2023-02-06T11:14:13.598Z,11.37
2023-02-06T11:16:41.796Z,10.50
2023-02-06T11:19:16.962Z,9.93
2023-02-06T11:21:51.590Z,11.70
2023-02-06T11:24:22.425Z,10.90
2023-02-06T11:26:52.109Z,11.43
2023-02-06T11:29:21.894Z,10.20
2023-02-06T11:31:52.923Z,12.00
2023-02-06T11:34:24.717Z,9.90
2023-02-06T11:36:54.654Z,9.30
2023-02-06T11:39:27.591Z,9.53
2023-02-06T11:42:00.281Z,9.10
2023-02-06T11:44:29.846Z,8.80
2023-02-06T11:46:58.068Z,8.57
2023-02-06T11:49:28.933Z,9.73
2023-02-06T11:51:59.738Z,9.30
2023-02-06T11:54:30.583Z,9.37
2023-02-06T11:57:03.088Z,8.63
2023-02-06T11:59:33.901Z,8.63
2023-02-06T12:02:05.636Z,8.37
2023-02-06T12:04:36.409Z,9.40
2023-02-06T12:07:08.124Z,7.17
2023-02-06T12:09:37.214Z,6.17
2023-02-06T12:12:09.236Z,5.60
2023-02-06T12:14:40.454Z,5.00
2023-02-06T12:17:16.387Z,5.00
2023-02-06T12:19:47.495Z,5.37
2023-02-06T12:22:19.646Z,5.30
2023-02-06T12:24:50.244Z,4.17
2023-02-06T12:27:20.864Z,5.13
2023-02-06T12:29:55.178Z,3.83
2023-02-06T12:32:26.034Z,4.80
2023-02-06T12:34:55.602Z,4.03
2023-02-06T12:37:31.944Z,4.90
2023-02-06T12:40:01.740Z,5.93
2023-02-06T12:42:39.734Z,5.30
2023-02-06T12:45:22.221Z,5.30
2023-02-06T12:47:54.655Z,6.40
2023-02-06T12:50:24.883Z,4.93
2023-02-06T12:52:55.066Z,6.27
2023-02-06T12:55:28.343Z,4.47
2023-02-06T12:57:56.456Z,4.47
2023-02-06T13:00:38.106Z,4.90
2023-02-06T13:03:28.671Z,4.47
2023-02-06T13:06:03.560Z,4.70
2023-02-06T13:08:43.580Z,5.07
2023-02-06T13:11:24.073Z,4.20
2023-02-06T13:14:00.618Z,4.30
2023-02-06T13:16:39.328Z,5.77
2023-02-06T13:19:07.080Z,4.50
2023-02-06T13:21:36.723Z,3.63
2023-02-06T13:24:18.291Z,3.03
2023-02-06T13:27:16.339Z,4.50
2023-02-06T13:29:45.629Z,4.33
2023-02-06T13:32:43.060Z,6.10
2023-02-06T13:35:27.219Z,8.10
2023-02-06T13:38:29.504Z,5.07
2023-02-06T13:41:18.987Z,3.47
2023-02-06T13:43:52.204Z,3.93
2023-02-06T13:46:22.198Z,4.07
2023-02-06T13:49:07.548Z,4.73
2023-02-06T13:51:50.277Z,3.93
2023-02-06T13:54:58.863Z,3.40
2023-02-06T13:57:41.164Z,3.80
2023-02-06T14:00:15.325Z,4.43
2023-02-06T14:02:43.979Z,4.23
2023-02-06T14:05:14.388Z,2.83
2023-02-06T14:07:55.514Z,6.47
2023-02-06T14:10:38.990Z,4.60
2023-02-06T14:13:18.401Z,4.37
2023-02-06T14:15:54.329Z,3.90
2023-02-06T14:18:41.129Z,3.53
2023-02-06T14:21:19.587Z,3.67
2023-02-06T14:24:00.437Z,3.93
2023-02-06T14:26:36.196Z,3.83
2023-02-06T14:29:11.011Z,3.60
2023-02-06T14:32:11.979Z,3.80
2023-02-06T14:34:51.661Z,3.20
2023-02-06T14:37:30.506Z,3.90
2023-02-06T14:40:04.481Z,3.13
2023-02-06T14:42:35.103Z,4.03
2023-02-06T14:45:05.278Z,3.50
2023-02-06T14:47:40.003Z,3.50
2023-02-06T14:50:09.208Z,3.73
2023-02-06T14:52:37.025Z,3.87
2023-02-06T14:55:32.271Z,3.27
2023-02-06T14:58:00.157Z,3.87
2023-02-06T15:00:29.367Z,3.67
2023-02-06T15:03:08.020Z,3.97
2023-02-06T15:05:36.434Z,4.60
2023-02-06T15:08:05.583Z,3.13
2023-02-06T15:10:35.919Z,4.20
2023-02-06T15:13:04.338Z,4.37
2023-02-06T15:15:33.799Z,3.90
2023-02-06T15:18:04.477Z,4.80
2023-02-06T15:20:37.068Z,4.43
2023-02-06T15:23:17.118Z,3.57
2023-02-06T15:26:00.483Z,3.30
2023-02-06T15:28:30.473Z,3.67
2023-02-06T15:30:59.832Z,5.10
2023-02-06T15:33:30.759Z,4.13
2023-02-06T15:36:01.276Z,3.43
2023-02-06T15:38:30.624Z,3.50
2023-02-06T15:41:01.435Z,4.57
2023-02-06T15:43:29.521Z,3.20
2023-02-06T15:45:59.201Z,4.37
2023-02-06T15:48:29.812Z,4.37
2023-02-06T15:51:01.020Z,4.80
2023-02-06T15:53:35.922Z,5.63
2023-02-06T15:56:05.080Z,7.43
2023-02-06T15:58:34.300Z,6.90
2023-02-06T16:01:03.093Z,5.17
2023-02-06T16:03:31.536Z,5.37
2023-02-06T16:06:00.925Z,4.87
2023-02-06T16:08:32.064Z,8.87
2023-02-06T16:11:02.507Z,8.23
2023-02-06T16:13:31.991Z,7.10
2023-02-06T16:16:18.110Z,5.30
2023-02-06T16:18:46.515Z,5.27
2023-02-06T16:21:25.065Z,5.10
2023-02-06T16:23:56.828Z,4.83
2023-02-06T16:26:26.627Z,5.47
2023-02-06T16:28:58.132Z,5.80
2023-02-06T16:31:26.485Z,6.27
2023-02-06T16:33:55.454Z,6.90
2023-02-06T16:36:25.224Z,6.30
2023-02-06T16:39:03.736Z,6.83
2023-02-06T16:41:34.315Z,4.57
2023-02-06T16:44:03.018Z,7.37
2023-02-06T16:46:31.350Z,6.57
2023-02-06T16:49:00.399Z,7.90
2023-02-06T16:51:30.891Z,8.17
2023-02-06T16:53:59.360Z,5.60
2023-02-06T16:56:27.096Z,5.20
2023-02-06T16:58:54.839Z,7.37
2023-02-06T17:01:25.259Z,6.10
2023-02-06T17:03:53.676Z,5.93
2023-02-06T17:06:23.380Z,6.07
2023-02-06T17:08:53.218Z,5.53
2023-02-06T17:11:21.054Z,5.43
2023-02-06T17:13:49.084Z,5.23
2023-02-06T17:16:19.274Z,21.60
2023-02-06T17:18:47.462Z,31.03
2023-02-06T17:21:16.871Z,21.03
2023-02-06T17:23:45.722Z,7.43
2023-02-06T17:26:16.663Z,7.63
2023-02-06T17:28:44.512Z,7.13
2023-02-06T17:31:12.413Z,7.13
2023-02-06T17:33:40.228Z,6.40
2023-02-06T17:36:10.865Z,31.73
2023-02-06T17:38:38.539Z,30.53
2023-02-06T17:41:06.436Z,33.47
2023-02-06T17:43:37.403Z,31.23
2023-02-06T17:46:05.397Z,28.93
2023-02-06T17:48:36.434Z,23.33
2023-02-06T17:51:05.714Z,15.73
2023-02-06T17:53:33.466Z,16.00
2023-02-06T17:56:05.043Z,15.87
2023-02-06T17:58:32.773Z,16.97
2023-02-06T18:01:02.074Z,10.40
2023-02-06T18:03:29.891Z,9.20
2023-02-06T18:05:58.968Z,13.63
2023-02-06T18:08:26.812Z,17.30
2023-02-06T18:10:54.624Z,15.10
2023-02-06T18:13:24.358Z,18.67
2023-02-06T18:15:53.350Z,16.43
2023-02-06T18:18:23.541Z,21.77
2023-02-06T18:20:52.154Z,13.03
2023-02-06T18:23:20.201Z,11.43
2023-02-06T18:25:47.961Z,21.03
2023-02-06T18:28:17.258Z,15.70
2023-02-06T18:30:45.689Z,13.50
2023-02-06T18:33:13.780Z,12.73
2023-02-06T18:35:46.462Z,9.70
2023-02-06T18:38:15.312Z,9.77
2023-02-06T18:40:45.580Z,10.57
2023-02-06T18:43:13.183Z,8.47
2023-02-06T18:45:41.731Z,10.93
2023-02-06T18:48:11.339Z,10.47
2023-02-06T18:50:42.813Z,10.37
2023-02-06T18:53:10.514Z,9.50
2023-02-06T18:55:39.028Z,10.03
2023-02-06T18:58:07.162Z,10.67
2023-02-06T19:00:36.085Z,14.43
2023-02-06T19:03:04.457Z,10.57
2023-02-06T19:05:35.919Z,17.10
2023-02-06T19:08:05.022Z,11.40
2023-02-06T19:10:32.679Z,9.83
2023-02-06T19:13:00.395Z,10.90
2023-02-06T19:15:30.161Z,14.53
2023-02-06T19:17:57.969Z,15.70
2023-02-06T19:20:25.823Z,13.67
2023-02-06T19:22:53.648Z,12.40
2023-02-06T19:25:22.813Z,10.53
2023-02-06T19:27:50.572Z,9.53
2023-02-06T19:30:18.303Z,8.90
2023-02-06T19:32:46.116Z,9.57
2023-02-06T19:35:14.581Z,14.93
2023-02-06T19:37:42.265Z,10.93
2023-02-06T19:40:10.920Z,13.27
2023-02-06T19:42:41.489Z,11.77
2023-02-06T19:45:09.399Z,11.50
2023-02-06T19:47:37.276Z,14.27
2023-02-06T19:50:06.003Z,15.97
2023-02-06T19:52:35.201Z,20.37
2023-02-06T19:55:03.028Z,12.93
2023-02-06T19:57:30.773Z,9.97
2023-02-06T20:00:00.398Z,9.70
2023-02-06T20:02:28.142Z,8.73
2023-02-06T20:04:55.897Z,9.60
2023-02-06T20:07:23.617Z,7.20
2023-02-06T20:09:52.221Z,8.10
2023-02-06T20:12:20.203Z,9.53
2023-02-06T20:14:47.977Z,10.67
2023-02-06T20:17:18.041Z,11.20
2023-02-06T20:19:45.758Z,9.57
2023-02-06T20:22:13.443Z,19.97
2023-02-06T20:24:41.184Z,19.10
2023-02-06T20:27:09.482Z,18.20
2023-02-06T20:29:38.692Z,10.90
2023-02-06T20:32:07.283Z,15.93
2023-02-06T20:34:36.819Z,14.10
2023-02-06T20:37:04.853Z,15.57
2023-02-06T20:39:32.883Z,16.57
2023-02-06T20:42:00.620Z,24.33
2023-02-06T20:44:28.743Z,14.90
2023-02-06T20:46:56.478Z,17.37
2023-02-06T20:49:26.235Z,15.30
2023-02-06T20:51:55.907Z,14.93
2023-02-06T20:54:24.938Z,15.37
2023-02-06T20:56:52.712Z,15.83
2023-02-06T20:59:21.351Z,16.60
2023-02-06T21:01:49.331Z,17.57
2023-02-06T21:04:17.831Z,17.80
2023-02-06T21:06:47.784Z,18.50
2023-02-06T21:09:17.712Z,16.63
2023-02-06T21:11:47.250Z,15.97
2023-02-06T21:14:15.652Z,14.30
2023-02-06T21:16:44.272Z,16.57
2023-02-06T21:19:14.104Z,16.13
2023-02-06T21:21:43.694Z,16.03
2023-02-06T21:24:13.572Z,17.67
2023-02-06T21:26:42.807Z,15.63
2023-02-06T21:29:11.401Z,15.70
2023-02-06T21:31:39.314Z,18.00
2023-02-06T21:34:09.030Z,17.03
2023-02-06T21:36:37.961Z,17.80
2023-02-06T21:39:06.207Z,19.23
2023-02-06T21:41:34.035Z,18.30
2023-02-06T21:44:03.292Z,18.80
2023-02-06T21:46:31.338Z,25.77
2023-02-06T21:48:59.110Z,19.20
2023-02-06T21:51:27.072Z,21.07
2023-02-06T21:53:56.346Z,30.37
2023-02-06T21:56:27.112Z,28.90
2023-02-06T21:58:54.994Z,28.47
2023-02-06T22:01:25.614Z,22.77
2023-02-06T22:03:53.876Z,24.40
2023-02-06T22:06:21.767Z,28.60
2023-02-06T22:08:51.860Z,22.57
2023-02-06T22:11:22.376Z,22.63
2023-02-06T22:13:50.692Z,21.83
2023-02-06T22:16:20.350Z,23.77
2023-02-06T22:18:49.518Z,21.93
2023-02-06T22:21:18.751Z,26.90
2023-02-06T22:23:47.602Z,27.53
2023-02-06T22:26:17.127Z,29.37
2023-02-06T22:28:45.869Z,28.60
2023-02-06T22:31:16.086Z,27.20
2023-02-06T22:33:44.449Z,26.93
2023-02-06T22:36:15.691Z,31.13
2023-02-06T22:38:44.295Z,29.57
2023-02-06T22:41:13.300Z,25.63
2023-02-06T22:43:41.100Z,30.57
2023-02-06T22:46:09.750Z,29.27
2023-02-06T22:48:37.636Z,32.93
2023-02-06T22:51:06.531Z,33.50
2023-02-06T22:53:36.362Z,31.43
2023-02-06T22:56:23.980Z,32.17
2023-02-06T22:58:52.726Z,30.47
2023-02-06T23:01:21.924Z,30.00
2023-02-06T23:03:52.664Z,30.13
2023-02-06T23:06:21.057Z,28.37
2023-02-06T23:08:50.402Z,27.90
2023-02-06T23:11:18.351Z,28.50
2023-02-06T23:13:46.341Z,27.93
2023-02-06T23:16:14.117Z,28.80
2023-02-06T23:18:41.849Z,28.97
2023-02-06T23:21:12.091Z,28.77
2023-02-06T23:23:40.807Z,30.40
2023-02-06T23:26:10.760Z,27.47
2023-02-06T23:28:39.122Z,29.33
2023-02-06T23:31:07.124Z,28.37
2023-02-06T23:33:35.354Z,29.30
2023-02-06T23:36:05.932Z,29.63
2023-02-06T23:38:33.823Z,29.30
2023-02-06T23:41:06.607Z,30.17
2023-02-06T23:43:36.016Z,30.27
2023-02-06T23:46:03.908Z,31.60
2023-02-06T23:48:31.766Z,31.83
2023-02-06T23:50:59.583Z,33.67
2023-02-06T23:53:27.370Z,34.00
2023-02-06T23:55:55.412Z,33.57
2023-02-06T23:58:23.144Z,34.03
